Aviation Digital Data Service (ADDS)

Output produced by METARs form (1527 UTC 24 August 2019)
found at http://www.aviationweather.gov/metar/data/
 
Forecast for: OKBK (KUWAIT INTL (MIL, KW)
Text: TAF OKBK 241045Z 2412/2518 14010KT 6000 SKC
Forecast period: 1200 UTC 24 August 2019 to 1800 UTC 25 August 2019
Forecast type: FROM: standard forecast or significant change
Winds: from the SE (140 degrees) at 12 MPH (10 knots; 5.1 m/s)
Visibility: 4 miles (6 km)
Clouds: clear skies
Weather: no significant weather forecast for this period